Time;durP1;ratioP1;P1;durP2;ratioP2;P2;SDS_P1;SDS_P2;PMS_P1;PMS_P2;Temp;Humidity;BMP_temperature;BMP_pressure;BME280_temperature;BME280_humidity;BME280_pressure;Samples;Min_cycle;Max_cycle;Signal;HPM_P1;HPM_P2
2021/10/04 00:02:51;;;;;;;0.40;0.30;;;15.40;72.10;;;;;;6209547;28;20066;-80
2021/10/04 00:05:51;;;;;;;0.43;0.35;;;15.30;72.10;;;;;;6223000;28;20029;-79
2021/10/04 00:08:52;;;;;;;0.20;0.13;;;15.30;72.10;;;;;;6208140;28;20045;-78
2021/10/04 00:11:53;;;;;;;0.00;0.00;;;15.30;72.10;;;;;;6217629;28;20451;-79
2021/10/04 00:14:54;;;;;;;0.10;0.10;;;15.30;72.20;;;;;;6213122;28;20118;-79
2021/10/04 00:17:56;;;;;;;0.30;0.28;;;15.20;72.40;;;;;;6200120;28;20030;-79
2021/10/04 00:20:56;;;;;;;0.13;0.13;;;15.20;72.60;;;;;;6200426;28;20117;-79
2021/10/04 00:23:57;;;;;;;0.15;0.15;;;15.20;72.70;;;;;;6198054;28;20034;-79
2021/10/04 00:26:58;;;;;;;0.17;0.15;;;15.10;72.60;;;;;;6202658;28;20391;-78
2021/10/04 00:30:05;;;;;;;0.20;0.20;;;15.10;72.80;;;;;;6187983;28;20050;-79
2021/10/04 00:33:06;;;;;;;0.52;0.32;;;15.00;73.00;;;;;;6209281;28;20040;-79
2021/10/04 00:36:07;;;;;;;0.60;0.20;;;15.00;73.20;;;;;;6228443;28;20034;-79
2021/10/04 00:39:08;;;;;;;2.28;0.10;;;15.00;73.50;;;;;;6226295;28;20063;-78
2021/10/04 00:42:09;;;;;;;0.08;0.05;;;14.90;73.60;;;;;;6227872;28;20030;-79
2021/10/04 00:45:12;;;;;;;0.20;0.20;;;14.90;73.70;;;;;;6228569;28;20033;-80
2021/10/04 00:48:13;;;;;;;0.50;0.22;;;14.90;73.80;;;;;;6227247;28;20111;-79
2021/10/04 00:51:15;;;;;;;0.10;0.10;;;14.80;73.90;;;;;;6228350;28;20046;-79
2021/10/04 00:54:16;;;;;;;0.30;0.20;;;14.80;73.90;;;;;;6221507;28;20443;-78
2021/10/04 00:57:18;;;;;;;0.10;0.10;;;14.80;73.60;;;;;;6202972;28;20038;-79
2021/10/04 01:00:22;;;;;;;0.10;0.10;;;13.20;72.60;;;;;;6204364;28;20168;-79
2021/10/04 01:03:23;;;;;;;0.30;0.20;;;14.80;73.70;;;;;;6218003;28;20038;-79
2021/10/04 01:06:28;;;;;;;0.80;0.17;;;14.80;74.40;;;;;;6186985;28;20084;-79
2021/10/04 01:09:29;;;;;;;3.67;0.20;;;14.80;73.60;;;;;;6195088;28;20058;-79
2021/10/04 01:12:30;;;;;;;3.40;0.20;;;14.80;73.70;;;;;;6203723;28;20051;-79
2021/10/04 01:15:31;;;;;;;0.55;0.35;;;14.90;73.80;;;;;;6225023;28;20030;-80
2021/10/04 01:18:32;;;;;;;1.58;0.20;;;14.90;74.00;;;;;;6204055;28;20047;-79
2021/10/04 01:21:33;;;;;;;0.95;0.47;;;14.90;73.90;;;;;;6195809;28;20053;-79
2021/10/04 01:24:35;;;;;;;0.10;0.10;;;14.90;73.90;;;;;;6202957;28;20050;-79
2021/10/04 01:27:36;;;;;;;0.30;0.13;;;14.90;73.80;;;;;;6201874;28;20081;-78
2021/10/04 01:30:37;;;;;;;0.10;0.10;;;14.80;73.70;;;;;;6222115;28;20050;-78
2021/10/04 01:33:38;;;;;;;0.30;0.15;;;13.90;73.20;;;;;;6219416;28;20529;-79
2021/10/04 01:36:39;;;;;;;0.35;0.25;;;14.80;73.50;;;;;;6225816;28;20034;-79
2021/10/04 01:39:40;;;;;;;0.40;0.13;;;14.80;73.40;;;;;;6215609;28;20421;-79
2021/10/04 01:42:43;;;;;;;0.17;0.17;;;14.80;73.40;;;;;;6202527;28;20035;-79
2021/10/04 01:45:44;;;;;;;0.08;0.08;;;14.80;73.20;;;;;;6181104;28;20096;-79
2021/10/04 01:48:45;;;;;;;0.32;0.17;;;14.80;73.10;;;;;;6217381;28;20078;-79
2021/10/04 01:51:46;;;;;;;0.70;0.30;;;14.80;73.20;;;;;;6202412;28;20411;-79
2021/10/04 01:54:47;;;;;;;0.65;0.30;;;14.80;73.20;;;;;;6198563;28;20045;-78
2021/10/04 01:57:48;;;;;;;0.30;0.20;;;14.80;73.10;;;;;;6202176;28;20072;-79
2021/10/04 02:00:49;;;;;;;0.05;0.05;;;14.90;73.10;;;;;;6208940;28;20052;-79
2021/10/04 02:03:51;;;;;;;0.00;0.00;;;14.90;73.10;;;;;;6220073;28;20429;-79
2021/10/04 02:06:51;;;;;;;0.25;0.15;;;14.90;73.10;;;;;;6226194;28;20076;-79
2021/10/04 02:09:52;;;;;;;0.47;0.20;;;14.90;73.10;;;;;;6225976;28;20366;-79
2021/10/04 02:12:55;;;;;;;0.30;0.20;;;15.00;72.90;;;;;;6226457;28;20034;-79
2021/10/04 02:15:56;;;;;;;0.30;0.20;;;15.10;72.80;;;;;;6221907;28;20137;-79
2021/10/04 02:18:57;;;;;;;0.00;0.00;;;15.10;72.70;;;;;;6185217;28;20050;-79
2021/10/04 02:22:00;;;;;;;0.45;0.30;;;15.20;72.60;;;;;;6199942;28;20121;-79
2021/10/04 02:25:01;;;;;;;0.50;0.40;;;15.20;72.40;;;;;;6201305;28;20046;-79
2021/10/04 02:28:03;;;;;;;0.15;0.10;;;15.20;72.40;;;;;;6201399;28;20133;-78
2021/10/04 02:31:04;;;;;;;1.00;0.20;;;15.20;72.30;;;;;;6202184;28;20049;-81
2021/10/04 02:34:06;;;;;;;0.10;0.10;;;15.20;72.20;;;;;;6202632;28;20046;-79
2021/10/04 02:37:06;;;;;;;0.10;0.10;;;15.20;72.20;;;;;;6204317;28;20035;-78
2021/10/04 02:40:09;;;;;;;0.10;0.10;;;15.20;72.20;;;;;;6206018;28;20382;-78
2021/10/04 02:43:10;;;;;;;0.52;0.20;;;15.20;72.30;;;;;;6187683;28;20042;-79
2021/10/04 02:46:11;;;;;;;0.15;0.15;;;15.20;72.30;;;;;;6174569;28;20077;-78
2021/10/04 02:49:12;;;;;;;0.20;0.20;;;15.20;72.50;;;;;;6201186;28;20434;-79
2021/10/04 02:52:16;;;;;;;0.95;0.40;;;15.20;72.60;;;;;;6201063;28;20439;-78
2021/10/04 02:55:18;;;;;;;0.10;0.10;;;15.20;72.60;;;;;;6184184;28;20566;-79
2021/10/04 02:58:19;;;;;;;2.05;0.22;;;15.30;72.50;;;;;;6210142;28;20034;-78
2021/10/04 03:01:20;;;;;;;0.47;0.17;;;15.30;72.50;;;;;;6224976;28;20065;-78
2021/10/04 03:04:22;;;;;;;0.10;0.10;;;15.20;72.60;;;;;;6204088;28;20053;-79
2021/10/04 03:07:24;;;;;;;0.32;0.10;;;15.20;72.70;;;;;;6209682;28;20099;-80
2021/10/04 03:10:25;;;;;;;0.90;0.25;;;15.20;72.60;;;;;;6224427;28;20038;-79
2021/10/04 03:13:26;;;;;;;1.98;0.38;;;15.20;72.60;;;;;;6224333;28;20033;-78
2021/10/04 03:16:27;;;;;;;0.03;0.00;;;15.20;72.60;;;;;;6216636;28;20045;-79
2021/10/04 03:19:27;;;;;;;1.02;0.20;;;15.20;72.60;;;;;;6200474;28;20034;-78
2021/10/04 03:22:28;;;;;;;2.55;0.40;;;15.20;72.80;;;;;;6215568;28;20038;-79
2021/10/04 03:25:29;;;;;;;1.95;0.52;;;15.20;72.90;;;;;;6201563;28;20083;-81
2021/10/04 03:28:30;;;;;;;0.32;0.28;;;15.10;72.90;;;;;;6208126;28;20050;-79
2021/10/04 03:31:31;;;;;;;0.95;0.40;;;15.10;73.20;;;;;;6216282;28;20045;-79
2021/10/04 03:34:32;;;;;;;3.35;0.60;;;15.10;73.20;;;;;;6161223;28;20062;-79
2021/10/04 03:37:34;;;;;;;3.28;0.50;;;15.10;73.30;;;;;;6176977;28;20042;-79
2021/10/04 03:40:35;;;;;;;1.05;0.38;;;15.10;73.30;;;;;;6177418;28;20117;-79
2021/10/04 03:43:36;;;;;;;7.13;0.55;;;15.10;73.40;;;;;;6178055;28;20038;-80
2021/10/04 03:46:37;;;;;;;1.50;0.40;;;15.00;73.50;;;;;;6190466;28;20145;-80
2021/10/04 03:49:38;;;;;;;4.10;0.73;;;15.00;73.70;;;;;;6175197;28;20042;-80
2021/10/04 03:52:39;;;;;;;1.20;0.32;;;15.10;73.80;;;;;;6169023;28;20038;-80
2021/10/04 03:55:40;;;;;;;1.15;0.30;;;15.00;73.70;;;;;;6183493;28;20026;-80
2021/10/04 03:58:41;;;;;;;3.90;0.47;;;15.00;73.80;;;;;;6200758;28;20045;-80
2021/10/04 04:01:42;;;;;;;2.83;0.38;;;15.10;73.90;;;;;;6204872;28;20027;-80
2021/10/04 04:04:43;;;;;;;2.90;0.60;;;15.00;73.80;;;;;;6191943;28;20068;-80
2021/10/04 04:07:44;;;;;;;1.92;0.50;;;15.10;74.00;;;;;;6206450;28;20077;-80
2021/10/04 04:10:45;;;;;;;1.40;0.65;;;15.00;73.90;;;;;;6223138;28;20049;-80
2021/10/04 04:13:46;;;;;;;1.55;0.70;;;15.00;74.10;;;;;;6222863;28;20029;-80
2021/10/04 04:16:47;;;;;;;1.55;0.43;;;15.00;74.10;;;;;;6214732;28;20455;-79
2021/10/04 04:19:48;;;;;;;2.00;0.80;;;15.00;74.30;;;;;;6189558;28;20041;-79
2021/10/04 04:22:49;;;;;;;1.33;0.50;;;15.00;74.40;;;;;;6199125;28;20486;-79
2021/10/04 04:25:50;;;;;;;0.88;0.45;;;15.00;74.40;;;;;;6213368;28;20034;-80
2021/10/04 04:28:51;;;;;;;3.03;0.47;;;15.00;74.40;;;;;;6218048;28;20043;-79
2021/10/04 04:31:52;;;;;;;0.17;0.17;;;15.00;74.40;;;;;;6198907;28;20069;-80
2021/10/04 04:34:53;;;;;;;0.68;0.40;;;15.00;74.40;;;;;;6176965;28;20050;-79
2021/10/04 04:37:53;;;;;;;0.82;0.28;;;15.00;74.40;;;;;;6163929;28;20046;-80
2021/10/04 04:40:54;;;;;;;0.10;0.10;;;14.90;74.60;;;;;;6175404;28;20039;-80
2021/10/04 04:43:55;;;;;;;0.30;0.30;;;14.90;74.80;;;;;;6151039;28;20032;-80
2021/10/04 04:46:57;;;;;;;0.80;0.30;;;14.90;74.70;;;;;;6176592;28;20113;-80
2021/10/04 04:49:58;;;;;;;0.35;0.22;;;14.90;75.00;;;;;;6206082;28;20064;-80
2021/10/04 04:52:58;;;;;;;0.00;0.00;;;14.90;75.00;;;;;;6222185;28;20038;-80
2021/10/04 04:55:59;;;;;;;0.90;0.40;;;14.90;75.10;;;;;;6222506;28;20037;-80
2021/10/04 04:59:01;;;;;;;0.13;0.13;;;14.90;75.20;;;;;;6224339;28;20030;-79
2021/10/04 05:02:02;;;;;;;2.28;0.10;;;14.90;75.20;;;;;;6218792;28;20034;-80
2021/10/04 05:05:06;;;;;;;0.10;0.10;;;14.90;75.20;;;;;;6222417;28;20045;-80
2021/10/04 05:08:07;;;;;;;2.20;0.52;;;14.90;75.20;;;;;;6205286;28;20463;-79
2021/10/04 05:11:08;;;;;;;0.98;0.13;;;15.00;75.20;;;;;;6178874;28;20050;-79
2021/10/04 05:14:09;;;;;;;0.00;0.00;;;15.00;74.80;;;;;;6186789;28;20039;-79
2021/10/04 05:17:11;;;;;;;0.63;0.60;;;15.00;74.70;;;;;;6203744;28;20042;-79
2021/10/04 05:20:12;;;;;;;1.17;0.55;;;15.00;74.70;;;;;;6203085;28;20034;-79
2021/10/04 05:23:13;;;;;;;0.68;0.50;;;15.00;74.60;;;;;;6203525;28;20050;-80
2021/10/04 05:26:14;;;;;;;0.35;0.28;;;15.10;74.90;;;;;;6202733;28;20042;-80
2021/10/04 05:29:15;;;;;;;0.90;0.50;;;15.10;74.80;;;;;;6203732;28;20085;-79
2021/10/04 05:32:17;;;;;;;3.03;0.80;;;15.20;74.90;;;;;;6221514;28;20038;-79
2021/10/04 05:35:18;;;;;;;0.95;0.82;;;15.20;74.70;;;;;;6226782;28;20100;-79
2021/10/04 05:38:19;;;;;;;0.82;0.50;;;15.30;74.70;;;;;;6209748;28;20172;-79
2021/10/04 05:41:20;;;;;;;0.85;0.50;;;15.30;74.60;;;;;;6186809;28;20485;-79
2021/10/04 05:44:24;;;;;;;0.70;0.52;;;15.40;74.60;;;;;;6201578;28;20042;-81
2021/10/04 05:47:25;;;;;;;0.68;0.20;;;15.40;74.50;;;;;;6159816;28;20050;-79
2021/10/04 05:50:26;;;;;;;0.25;0.22;;;15.40;74.00;;;;;;6193924;28;20038;-81
2021/10/04 05:53:26;;;;;;;0.90;0.40;;;15.40;74.20;;;;;;6193756;28;20077;-80
2021/10/04 05:56:27;;;;;;;1.70;0.30;;;15.50;74.10;;;;;;6207169;28;20042;-80
2021/10/04 05:59:28;;;;;;;0.38;0.22;;;15.50;74.10;;;;;;6224127;28;20529;-80
2021/10/04 06:02:29;;;;;;;0.28;0.20;;;15.50;74.00;;;;;;6219207;28;20030;-80
2021/10/04 06:05:30;;;;;;;1.20;0.30;;;15.50;74.00;;;;;;6201237;28;20030;-80
2021/10/04 06:08:31;;;;;;;0.43;0.30;;;15.50;73.80;;;;;;6219533;28;20474;-80
2021/10/04 06:11:32;;;;;;;0.50;0.22;;;15.50;74.80;;;;;;6211482;28;20057;-80
2021/10/04 06:14:33;;;;;;;1.35;0.20;;;15.50;73.80;;;;;;6201834;28;20364;-79
2021/10/04 06:17:34;;;;;;;0.32;0.10;;;15.50;73.70;;;;;;6202286;28;20034;-79
2021/10/04 06:20:35;;;;;;;0.73;0.32;;;15.50;73.60;;;;;;6216886;28;20050;-80
2021/10/04 06:23:36;;;;;;;0.22;0.20;;;15.50;73.50;;;;;;6223613;28;20041;-80
2021/10/04 06:26:37;;;;;;;2.20;0.30;;;15.50;73.50;;;;;;6195249;28;20053;-80
2021/10/04 06:29:38;;;;;;;0.50;0.30;;;15.60;73.60;;;;;;6201651;28;20430;-80
2021/10/04 06:32:39;;;;;;;0.45;0.40;;;15.60;73.60;;;;;;6186288;28;20045;-80
2021/10/04 06:35:40;;;;;;;1.30;0.43;;;15.70;73.70;;;;;;6219465;28;20037;-80
2021/10/04 06:38:41;;;;;;;2.42;0.60;;;15.70;73.70;;;;;;6226079;28;20057;-80
2021/10/04 06:41:42;;;;;;;1.38;0.77;;;15.70;73.70;;;;;;6208672;28;20359;-80
2021/10/04 06:44:43;;;;;;;1.65;0.70;;;15.80;73.70;;;;;;6224133;28;20100;-80
2021/10/04 06:47:44;;;;;;;3.00;0.75;;;15.80;73.50;;;;;;6207593;28;20057;-80
2021/10/04 06:50:45;;;;;;;1.48;0.50;;;15.80;73.60;;;;;;6204268;28;20038;-80
2021/10/04 06:53:46;;;;;;;0.43;0.40;;;15.80;73.60;;;;;;6207781;28;20053;-80
2021/10/04 06:56:47;;;;;;;2.72;1.00;;;15.90;73.60;;;;;;6225086;28;20044;-80
2021/10/04 06:59:48;;;;;;;6.15;1.33;;;15.90;73.60;;;;;;6207421;28;20025;-80
2021/10/04 07:02:53;;;;;;;1.73;0.95;;;15.90;73.60;;;;;;6220873;28;20044;-81
2021/10/04 07:05:55;;;;;;;1.83;0.80;;;15.90;73.60;;;;;;6207784;28;20080;-80
2021/10/04 07:08:57;;;;;;;1.30;0.77;;;16.00;73.60;;;;;;6215865;28;20046;-79
2021/10/04 07:11:58;;;;;;;0.73;0.60;;;16.00;73.40;;;;;;6208929;28;20046;-81
2021/10/04 07:14:59;;;;;;;3.72;0.88;;;16.00;73.40;;;;;;6200903;28;20434;-81
2021/10/04 07:18:01;;;;;;;0.77;0.70;;;16.00;73.40;;;;;;6215151;28;20046;-80
2021/10/04 07:21:02;;;;;;;0.45;0.40;;;16.00;73.40;;;;;;6206552;28;20041;-80
2021/10/04 07:24:03;;;;;;;2.10;0.40;;;16.00;73.20;;;;;;6207735;28;20041;-79
2021/10/04 07:27:05;;;;;;;1.25;0.40;;;16.00;73.00;;;;;;6203413;28;20453;-79
2021/10/04 07:30:07;;;;;;;0.68;0.43;;;16.00;73.10;;;;;;6210651;28;20042;-80
2021/10/04 07:33:10;;;;;;;1.55;0.70;;;16.00;73.10;;;;;;6207215;28;20038;-81
2021/10/04 07:36:11;;;;;;;2.30;0.80;;;16.10;73.30;;;;;;6200204;28;20462;-79
2021/10/04 07:39:12;;;;;;;1.45;0.90;;;16.00;73.00;;;;;;6206917;28;20466;-79
2021/10/04 07:42:13;;;;;;;2.83;1.10;;;16.20;73.00;;;;;;6222755;28;20045;-79
2021/10/04 07:45:15;;;;;;;6.88;2.65;;;16.20;72.90;;;;;;6200018;28;20081;-80
2021/10/04 07:48:16;;;;;;;1.95;1.10;;;16.20;72.90;;;;;;6182626;28;20049;-79
2021/10/04 07:51:17;;;;;;;4.78;1.67;;;16.30;72.90;;;;;;6199005;28;20475;-79
2021/10/04 07:54:18;;;;;;;2.85;1.20;;;16.30;72.80;;;;;;6196907;28;20041;-79
2021/10/04 07:57:19;;;;;;;2.47;1.20;;;16.30;72.80;;;;;;6197595;28;20054;-79
2021/10/04 08:00:21;;;;;;;1.77;1.02;;;16.30;72.80;;;;;;6198733;28;20088;-79
2021/10/04 08:03:22;;;;;;;1.80;1.10;;;16.30;72.80;;;;;;6182043;28;20034;-79
2021/10/04 08:06:26;;;;;;;1.23;1.00;;;16.30;72.80;;;;;;6198702;28;20042;-79
2021/10/04 08:09:27;;;;;;;1.52;1.02;;;16.30;72.80;;;;;;6208025;28;20475;-79
2021/10/04 08:12:28;;;;;;;0.75;0.70;;;16.30;72.70;;;;;;6206104;28;20038;-79
2021/10/04 08:15:29;;;;;;;3.33;1.30;;;16.40;72.70;;;;;;6222558;28;20058;-78
2021/10/04 08:18:30;;;;;;;1.73;1.20;;;16.50;72.60;;;;;;6221860;28;20034;-79
2021/10/04 08:21:31;;;;;;;3.42;1.60;;;16.60;72.60;;;;;;6202803;28;20093;-81
2021/10/04 08:24:32;;;;;;;5.05;1.48;;;16.60;72.40;;;;;;6239069;28;20038;-79
2021/10/04 08:27:33;;;;;;;3.35;1.40;;;16.60;72.20;;;;;;6223169;28;20050;-79
2021/10/04 08:30:34;;;;;;;1.98;1.10;;;16.60;72.20;;;;;;6209476;28;20054;-79
2021/10/04 08:33:35;;;;;;;2.35;1.25;;;16.60;72.30;;;;;;6198847;28;20038;-79
2021/10/04 08:36:37;;;;;;;3.13;1.40;;;16.60;72.60;;;;;;6220671;28;20034;-81
2021/10/04 08:39:37;;;;;;;2.10;1.23;;;16.60;72.30;;;;;;6222821;28;20044;-81
2021/10/04 08:42:39;;;;;;;4.93;1.75;;;16.60;72.20;;;;;;6217343;28;20031;-81
2021/10/04 08:45:44;;;;;;;4.50;1.65;;;16.60;72.30;;;;;;6208120;28;20478;-79
2021/10/04 08:48:47;;;;;;;2.40;1.40;;;16.60;72.20;;;;;;6185488;28;20129;-81
2021/10/04 08:51:50;;;;;;;2.92;1.50;;;16.60;72.30;;;;;;6204680;28;20105;-78
2021/10/04 08:54:50;;;;;;;4.68;1.58;;;16.60;72.40;;;;;;6186806;28;20034;-81
2021/10/04 08:57:52;;;;;;;1.58;1.17;;;16.60;72.50;;;;;;6181217;28;20423;-80
2021/10/04 09:00:53;;;;;;;2.00;1.45;;;16.70;72.60;;;;;;6185471;28;20056;-80
2021/10/04 09:03:57;;;;;;;1.80;1.30;;;16.70;72.50;;;;;;6214751;28;20362;-80
2021/10/04 09:07:01;;;;;;;2.88;1.45;;;16.80;72.40;;;;;;6217737;28;20043;-80
2021/10/04 09:10:03;;;;;;;4.38;1.42;;;16.80;72.30;;;;;;6203743;28;20082;-80
2021/10/04 09:13:06;;;;;;;1.25;0.80;;;16.90;72.30;;;;;;6203812;28;20433;-80
2021/10/04 09:16:07;;;;;;;6.57;0.90;;;17.00;72.00;;;;;;6215869;28;20070;-79
2021/10/04 09:19:19;;;;;;;1.00;0.88;;;17.10;71.80;;;;;;6205611;28;20066;-81
2021/10/04 09:22:21;;;;;;;4.25;1.65;;;17.10;71.60;;;;;;6200590;28;20117;-79
2021/10/04 09:25:24;;;;;;;11.45;3.65;;;17.10;71.50;;;;;;6197538;28;20038;-79
2021/10/04 09:28:30;;;;;;;7.07;3.28;;;17.20;71.50;;;;;;6207760;28;20136;-80
2021/10/04 09:31:37;;;;;;;4.90;1.80;;;17.30;71.40;;;;;;6216163;28;20040;-79
2021/10/04 09:34:37;;;;;;;6.63;2.00;;;17.40;71.00;;;;;;6205425;28;20363;-80
2021/10/04 09:37:39;;;;;;;1.60;1.33;;;17.50;70.50;;;;;;6213243;28;20104;-79
2021/10/04 09:40:46;;;;;;;3.42;1.40;;;17.70;70.20;;;;;;6200935;28;20078;-80
2021/10/04 09:44:00;;;;;;;2.55;1.90;;;17.80;70.20;;;;;;6205356;28;20443;-79
2021/10/04 09:47:35;;;;;;;44.72;21.73;;;18.00;69.90;;;;;;6200460;28;20046;-79
2021/10/04 09:50:37;;;;;;;2.08;1.30;;;18.20;69.30;;;;;;6183055;28;20030;-79
2021/10/04 09:53:38;;;;;;;1.60;0.90;;;18.30;68.40;;;;;;6195878;28;20398;-79
2021/10/04 09:56:39;;;;;;;2.45;1.30;;;18.30;68.00;;;;;;6216315;28;20098;-80
2021/10/04 09:59:40;;;;;;;3.10;1.42;;;18.40;67.80;;;;;;6216424;28;20038;-78
2021/10/04 10:02:41;;;;;;;2.50;0.70;;;18.60;67.60;;;;;;6181398;28;20045;-80
2021/10/04 10:05:50;;;;;;;3.03;1.48;;;18.70;67.20;;;;;;6216751;28;20092;-80
2021/10/04 10:08:53;;;;;;;4.47;1.25;;;18.90;66.80;;;;;;6210070;28;20038;-79
2021/10/04 10:11:54;;;;;;;1.15;0.80;;;19.00;66.00;;;;;;6192702;28;20060;-80
2021/10/04 10:14:56;;;;;;;13.10;4.43;;;19.10;65.70;;;;;;6227459;28;20038;-79
2021/10/04 10:18:10;;;;;;;8.88;4.03;;;19.20;64.90;;;;;;6222258;28;20038;-80
2021/10/04 10:21:17;;;;;;;4.93;2.70;;;19.20;63.70;;;;;;6196275;28;20060;-80
2021/10/04 10:24:29;;;;;;;3.25;1.38;;;19.20;63.80;;;;;;6215142;28;20052;-79
2021/10/04 10:27:40;;;;;;;2.55;1.30;;;19.20;63.80;;;;;;6215898;28;20415;-80
2021/10/04 10:30:51;;;;;;;2.88;1.45;;;19.10;63.60;;;;;;6192794;28;20049;-79
2021/10/04 10:33:53;;;;;;;0.70;0.57;;;19.10;64.10;;;;;;6206907;28;20034;-80
2021/10/04 10:37:09;;;;;;;0.88;0.30;;;19.10;63.50;;;;;;6219741;28;20410;-80
2021/10/04 10:40:16;;;;;;;4.47;2.85;;;18.90;63.40;;;;;;6220441;28;20053;-80
2021/10/04 10:43:17;;;;;;;0.73;0.38;;;18.80;63.30;;;;;;6219996;28;20034;-80
2021/10/04 10:46:42;;;;;;;1.67;1.00;;;18.80;63.80;;;;;;6219093;28;20053;-80
2021/10/04 10:50:08;;;;;;;2.28;1.00;;;18.70;63.90;;;;;;6194492;28;20030;-79
2021/10/04 10:53:26;;;;;;;1.55;0.50;;;18.70;64.40;;;;;;6202789;28;20041;-81
2021/10/04 10:56:53;;;;;;;2.28;0.60;;;18.70;64.70;;;;;;6194322;28;20034;-80
2021/10/04 11:00:14;;;;;;;0.70;0.47;;;18.70;64.40;;;;;;6179518;28;20426;-79
2021/10/04 11:03:19;;;;;;;2.35;0.40;;;18.60;64.40;;;;;;6177849;28;20026;-79
2021/10/04 11:06:38;;;;;;;1.30;0.60;;;18.50;64.50;;;;;;6209633;28;20062;-79
2021/10/04 11:10:04;;;;;;;2.90;0.60;;;18.50;65.00;;;;;;6215929;28;20036;-79
2021/10/04 11:13:08;;;;;;;1.27;0.40;;;18.50;65.10;;;;;;6185832;28;20141;-80
2021/10/04 11:16:09;;;;;;;0.93;0.60;;;18.60;65.20;;;;;;6195708;28;20031;-80
2021/10/04 11:19:21;;;;;;;1.25;0.38;;;18.60;64.90;;;;;;6178305;28;20084;-80
2021/10/04 11:22:22;;;;;;;0.95;0.40;;;18.70;64.40;;;;;;6204235;28;20030;-79
2021/10/04 11:25:24;;;;;;;3.05;0.30;;;18.80;64.30;;;;;;6196002;28;20038;-81
2021/10/04 11:28:36;;;;;;;1.63;0.77;;;18.90;64.20;;;;;;6198477;28;20305;-80
2021/10/04 11:31:44;;;;;;;1.27;0.65;;;19.30;64.10;;;;;;6218628;28;20363;-79
2021/10/04 11:34:45;;;;;;;1.67;0.60;;;19.60;62.90;;;;;;6213567;28;20048;-79
2021/10/04 11:37:46;;;;;;;0.85;0.40;;;20.00;62.00;;;;;;6211994;28;20454;-80
2021/10/04 11:40:47;;;;;;;0.63;0.50;;;20.30;61.10;;;;;;6197712;28;20072;-79
2021/10/04 11:43:48;;;;;;;0.47;0.20;;;20.40;60.40;;;;;;6195317;28;20125;-80
2021/10/04 11:46:59;;;;;;;1.23;0.70;;;20.40;59.50;;;;;;6177903;28;20070;-79
2021/10/04 11:50:05;;;;;;;1.58;0.82;;;20.30;59.90;;;;;;6189853;28;20049;-79
2021/10/04 11:53:07;;;;;;;0.73;0.55;;;20.20;59.90;;;;;;6183343;28;20076;-79
2021/10/04 11:56:10;;;;;;;1.58;0.40;;;20.20;60.50;;;;;;6202299;28;20412;-79
2021/10/04 11:59:13;;;;;;;0.90;0.50;;;20.70;60.50;;;;;;6197131;28;20042;-80
2021/10/04 12:02:22;;;;;;;1.92;0.88;;;21.60;58.60;;;;;;6176017;28;20121;-79
2021/10/04 12:05:26;;;;;;;0.50;0.40;;;22.40;56.60;;;;;;6200768;28;20049;-80
2021/10/04 12:08:39;;;;;;;1.52;0.50;;;22.80;55.40;;;;;;6211801;28;20355;-80
2021/10/04 12:11:58;;;;;;;0.75;0.35;;;22.90;54.90;;;;;;6220711;28;20109;-80
2021/10/04 12:15:01;;;;;;;0.30;0.30;;;22.80;55.10;;;;;;6198391;28;20045;-79
2021/10/04 12:18:03;;;;;;;0.98;0.40;;;22.90;54.80;;;;;;6204994;28;20049;-79
2021/10/04 12:21:25;;;;;;;0.38;0.30;;;22.80;53.70;;;;;;6223539;28;20041;-80
2021/10/04 12:24:37;;;;;;;1.55;0.88;;;22.60;53.90;;;;;;6201160;28;20034;-80
2021/10/04 12:27:38;;;;;;;0.52;0.35;;;22.40;54.40;;;;;;6183534;28;20129;-79
2021/10/04 12:30:55;;;;;;;0.40;0.40;;;22.20;54.60;;;;;;6192453;28;20454;-79
2021/10/04 12:33:55;;;;;;;1.10;0.45;;;22.10;54.60;;;;;;6205242;28;20049;-79
2021/10/04 12:36:56;;;;;;;6.38;0.85;;;21.80;54.90;;;;;;6199016;28;20042;-79
2021/10/04 12:39:58;;;;;;;0.40;0.40;;;21.70;55.30;;;;;;6178383;28;20142;-80
2021/10/04 12:43:03;;;;;;;1.70;0.70;;;21.50;55.70;;;;;;6201172;28;20063;-80
2021/10/04 12:46:11;;;;;;;1.08;0.50;;;21.30;55.60;;;;;;6182817;28;20473;-79
2021/10/04 12:49:20;;;;;;;0.38;0.30;;;21.10;55.80;;;;;;6195581;28;20390;-79
2021/10/04 12:52:28;;;;;;;1.27;0.57;;;21.10;55.90;;;;;;6182020;28;20121;-79
2021/10/04 12:55:29;;;;;;;7.13;0.65;;;21.00;56.10;;;;;;6199493;28;20038;-79
2021/10/04 12:58:34;;;;;;;0.57;0.35;;;20.80;56.20;;;;;;6199365;28;20169;-80
2021/10/04 13:01:56;;;;;;;1.75;0.43;;;20.70;56.40;;;;;;6180406;28;20144;-79
2021/10/04 13:04:58;;;;;;;1.30;0.60;;;20.60;56.70;;;;;;6217518;28;20026;-79
2021/10/04 13:07:59;;;;;;;0.70;0.50;;;20.50;56.90;;;;;;6217127;28;20042;-79
2021/10/04 13:11:00;;;;;;;1.05;0.47;;;20.40;56.80;;;;;;6176622;28;20064;-81
2021/10/04 13:14:03;;;;;;;1.02;0.30;;;20.40;57.10;;;;;;6212693;28;20037;-81
2021/10/04 13:17:04;;;;;;;0.60;0.40;;;20.30;57.30;;;;;;6215343;28;20084;-81
2021/10/04 13:20:06;;;;;;;2.13;0.88;;;20.30;57.50;;;;;;6198186;28;20080;-80
2021/10/04 13:23:07;;;;;;;2.10;0.60;;;20.30;57.50;;;;;;6179092;28;20096;-80
2021/10/04 13:26:11;;;;;;;0.93;0.50;;;20.30;57.60;;;;;;6202785;28;20050;-80
2021/10/04 13:29:13;;;;;;;1.33;0.60;;;20.30;57.50;;;;;;6163939;28;20054;-80
2021/10/04 13:32:14;;;;;;;0.93;0.70;;;20.20;57.50;;;;;;6204662;28;20060;-80
2021/10/04 13:35:15;;;;;;;1.02;0.80;;;20.10;57.70;;;;;;6181995;28;20042;-81
2021/10/04 13:38:16;;;;;;;2.72;0.93;;;20.10;58.00;;;;;;6181871;28;20106;-81
2021/10/04 13:41:18;;;;;;;1.08;0.65;;;20.10;57.90;;;;;;6199576;28;20042;-79
2021/10/04 13:44:19;;;;;;;2.17;0.50;;;20.00;58.20;;;;;;6195332;28;20086;-80
2021/10/04 13:47:20;;;;;;;2.25;0.80;;;19.90;58.30;;;;;;6208704;28;20149;-80
2021/10/04 13:50:21;;;;;;;1.55;0.50;;;19.90;58.50;;;;;;6203662;28;20108;-79
2021/10/04 13:53:23;;;;;;;2.38;0.70;;;19.80;58.90;;;;;;6178479;28;20038;-79
2021/10/04 13:56:24;;;;;;;3.25;1.05;;;19.80;58.60;;;;;;6236104;28;20038;-78
2021/10/04 13:59:25;;;;;;;4.47;1.42;;;19.60;58.60;;;;;;6222621;28;20455;-78
2021/10/04 14:02:27;;;;;;;2.30;0.68;;;19.60;58.80;;;;;;6217631;28;20089;-80
2021/10/04 14:05:29;;;;;;;1.67;1.00;;;19.60;59.00;;;;;;6178935;28;20368;-81
2021/10/04 14:08:30;;;;;;;8.05;2.65;;;19.50;58.90;;;;;;6201770;28;20068;-80
2021/10/04 14:11:31;;;;;;;4.35;2.42;;;19.40;59.00;;;;;;6209256;28;20117;-80
2021/10/04 14:14:32;;;;;;;2.50;1.65;;;19.40;59.70;;;;;;6191300;28;20459;-79
2021/10/04 14:17:32;;;;;;;1.15;0.70;;;19.30;59.20;;;;;;6196354;28;20054;-79
2021/10/04 14:20:33;;;;;;;5.97;1.55;;;19.40;59.30;;;;;;6194988;28;20137;-79
2021/10/04 14:23:34;;;;;;;3.70;0.90;;;19.30;59.40;;;;;;6211541;28;20077;-79
2021/10/04 14:26:35;;;;;;;2.30;0.77;;;19.20;59.40;;;;;;6196665;28;20062;-78
2021/10/04 14:29:36;;;;;;;1.02;0.73;;;19.10;59.60;;;;;;6176336;28;20054;-79
2021/10/04 14:32:39;;;;;;;1.20;0.40;;;19.10;59.90;;;;;;6202891;28;20092;-79
2021/10/04 14:35:40;;;;;;;1.48;0.60;;;19.00;60.20;;;;;;6173461;28;20037;-79
2021/10/04 14:38:41;;;;;;;2.30;0.70;;;19.00;60.40;;;;;;6157145;28;20035;-79
2021/10/04 14:41:43;;;;;;;2.75;0.80;;;19.00;60.70;;;;;;6150651;28;20043;-79
2021/10/04 14:44:44;;;;;;;0.77;0.50;;;19.00;61.20;;;;;;6172320;28;20130;-79
2021/10/04 14:47:45;;;;;;;1.15;0.70;;;19.00;61.60;;;;;;6171980;28;20455;-79
2021/10/04 14:50:50;;;;;;;1.95;0.93;;;18.90;61.80;;;;;;6182077;28;20038;-79
2021/10/04 14:53:51;;;;;;;1.20;0.90;;;18.90;62.00;;;;;;6196054;28;20125;-79
2021/10/04 14:56:54;;;;;;;2.38;0.82;;;18.90;62.30;;;;;;6205083;28;20048;-79
2021/10/04 14:59:55;;;;;;;2.33;0.93;;;18.90;62.50;;;;;;6221006;28;20037;-79
2021/10/04 15:02:56;;;;;;;2.72;1.08;;;18.80;62.70;;;;;;6184540;28;20034;-79
2021/10/04 15:05:58;;;;;;;1.30;0.80;;;18.70;63.00;;;;;;6179242;28;20042;-80
2021/10/04 15:08:59;;;;;;;2.90;1.05;;;18.70;63.40;;;;;;6187359;28;20038;-79
2021/10/04 15:12:01;;;;;;;4.32;0.80;;;18.70;63.80;;;;;;6221116;28;20108;-81
2021/10/04 15:15:05;;;;;;;1.83;1.10;;;18.70;64.10;;;;;;6204782;28;20107;-78
2021/10/04 15:18:06;;;;;;;5.10;1.25;;;18.60;64.10;;;;;;6207997;28;20065;-79
2021/10/04 15:21:07;;;;;;;1.48;1.15;;;18.50;64.10;;;;;;6212989;28;21165;-80
2021/10/04 15:24:08;;;;;;;2.20;1.00;;;18.40;64.40;;;;;;6202432;28;20034;-80
2021/10/04 15:27:10;;;;;;;1.70;1.20;;;18.30;64.40;;;;;;6220421;28;20115;-80
2021/10/04 15:30:10;;;;;;;1.05;0.90;;;18.10;64.40;;;;;;6203090;28;20045;-80
2021/10/04 15:33:11;;;;;;;4.07;1.05;;;18.00;64.70;;;;;;6190875;28;20044;-80
2021/10/04 15:36:12;;;;;;;2.83;1.05;;;17.90;65.00;;;;;;6198208;28;20403;-80
2021/10/04 15:39:13;;;;;;;2.00;1.00;;;17.70;65.30;;;;;;6198045;28;20467;-80
2021/10/04 15:42:14;;;;;;;1.60;1.27;;;17.60;65.80;;;;;;6180385;28;20046;-81
2021/10/04 15:45:15;;;;;;;3.30;1.13;;;17.50;66.00;;;;;;6171043;28;20465;-80
2021/10/04 15:48:18;;;;;;;1.00;0.80;;;17.40;66.20;;;;;;6177841;28;20041;-79
2021/10/04 15:51:19;;;;;;;2.90;1.55;;;17.30;66.40;;;;;;6198283;28;20057;-80